Time;durP1;ratioP1;P1;durP2;ratioP2;P2;SDS_P1;SDS_P2;PMS_P1;PMS_P2;Temp;Humidity;BMP_temperature;BMP_pressure;BME280_temperature;BME280_humidity;BME280_pressure;Samples;Min_cycle;Max_cycle;Signal;HPM_P1;HPM_P2
2022/08/13 00:01:06;;;;;;;13.05;9.60;;;;;;;18.65;78.36;100545.75;5016423;28;20034;-84
2022/08/13 00:03:32;;;;;;;11.75;9.40;;;;;;;18.72;78.52;100535.66;5014728;28;20131;-84
2022/08/13 00:05:59;;;;;;;18.33;11.13;;;;;;;18.69;78.33;100532.53;5014987;28;20105;-84
2022/08/13 00:08:25;;;;;;;14.20;9.88;;;;;;;18.64;78.13;100542.06;5016056;28;20487;-83
2022/08/13 00:10:51;;;;;;;12.60;11.05;;;;;;;18.67;78.10;100529.38;5016556;28;20030;-84
2022/08/13 00:13:18;;;;;;;14.25;10.55;;;;;;;18.63;78.36;100528.13;5016567;28;20375;-84
2022/08/13 00:15:45;;;;;;;11.93;9.77;;;;;;;18.59;78.55;100530.53;4998659;28;20085;-84
2022/08/13 00:18:14;;;;;;;13.00;10.13;;;;;;;18.58;78.80;100523.97;5014820;28;20026;-83
2022/08/13 00:20:44;;;;;;;13.23;9.90;;;;;;;18.59;78.94;100537.13;4998874;28;20451;-85
2022/08/13 00:23:15;;;;;;;14.38;11.20;;;;;;;18.54;79.56;100540.84;5016549;28;20057;-84
2022/08/13 00:25:41;;;;;;;13.48;11.35;;;;;;;18.52;79.70;100539.84;4999242;28;20022;-84
2022/08/13 00:28:07;;;;;;;13.50;9.88;;;;;;;18.43;79.98;100543.06;4999148;28;20028;-83
2022/08/13 00:30:35;;;;;;;13.73;10.45;;;;;;;18.34;80.89;100523.19;5014732;28;20030;-84
2022/08/13 00:33:03;;;;;;;13.30;10.55;;;;;;;18.26;82.37;100529.56;4998907;28;20029;-84
2022/08/13 00:35:29;;;;;;;13.35;10.43;;;;;;;18.25;83.05;100524.31;4998583;28;20062;-84
2022/08/13 00:37:56;;;;;;;13.25;10.32;;;;;;;18.22;83.79;100522.50;4998402;28;20475;-85
2022/08/13 00:40:23;;;;;;;11.25;9.55;;;;;;;18.21;83.35;100523.81;5014831;28;20034;-84
2022/08/13 00:42:50;;;;;;;22.38;11.15;;;;;;;18.21;83.74;100520.94;5014865;28;20120;-83
2022/08/13 00:45:16;;;;;;;12.25;9.35;;;;;;;18.17;84.29;100514.66;5014536;28;20026;-85
2022/08/13 00:50:27;;;;;;;12.60;10.25;;;;;;;18.13;83.92;100511.25;5015783;28;20061;-84
2022/08/13 00:52:52;;;;;;;13.25;11.00;;;;;;;18.13;84.47;100522.84;4998523;28;20026;-85
2022/08/13 00:55:20;;;;;;;16.20;10.75;;;;;;;18.07;84.59;100517.13;5014784;28;20030;-85
2022/08/13 00:57:47;;;;;;;15.25;10.70;;;;;;;18.12;84.25;100524.19;4998517;28;20087;-84
2022/08/13 01:00:18;;;;;;;20.13;10.57;;;;;;;18.10;84.20;100523.94;5014831;28;20025;-84
2022/08/13 01:02:46;;;;;;;12.48;10.68;;;;;;;18.15;84.53;100520.19;4998439;28;20025;-85
2022/08/13 01:05:11;;;;;;;12.65;10.40;;;;;;;18.08;84.25;100509.25;5014767;28;20072;-84
2022/08/13 01:07:41;;;;;;;11.48;9.70;;;;;;;18.20;84.44;100520.16;5015838;28;20410;-86
2022/08/13 01:10:08;;;;;;;12.15;9.20;;;;;;;18.20;83.90;100525.16;5014013;28;20046;-84
2022/08/13 01:12:35;;;;;;;10.57;9.30;;;;;;;18.18;83.77;100519.88;5015289;28;20026;-86
2022/08/13 01:15:02;;;;;;;10.30;8.60;;;;;;;18.28;83.41;100517.41;5014071;28;20117;-84
2022/08/13 01:17:28;;;;;;;12.55;9.18;;;;;;;18.45;83.02;100511.50;5013842;28;20091;-84
2022/08/13 01:19:54;;;;;;;11.00;9.00;;;;;;;18.55;82.27;100510.59;5016865;28;20025;-84
2022/08/13 01:22:21;;;;;;;11.30;8.68;;;;;;;18.60;81.33;100514.75;5013807;28;20460;-85
2022/08/13 01:24:46;;;;;;;10.68;8.77;;;;;;;18.65;81.44;100519.69;5013898;28;20144;-85
2022/08/13 01:27:13;;;;;;;9.20;7.80;;;;;;;18.64;81.17;100504.41;4997747;28;20033;-85
2022/08/13 01:29:38;;;;;;;9.65;7.95;;;;;;;18.77;80.80;100511.66;4997839;28;20394;-84
2022/08/13 01:32:05;;;;;;;10.85;7.57;;;;;;;18.80;80.10;100511.34;4997617;28;20030;-84
2022/08/13 01:34:32;;;;;;;14.05;8.70;;;;;;;18.89;79.95;100510.94;4997626;28;20037;-84
2022/08/13 01:36:58;;;;;;;10.85;8.38;;;;;;;18.94;79.16;100501.41;5013972;28;20034;-83
2022/08/13 01:39:25;;;;;;;11.55;8.80;;;;;;;18.90;79.38;100505.94;5013507;28;20076;-84
2022/08/13 01:41:50;;;;;;;10.10;8.23;;;;;;;18.96;79.03;100506.66;5012700;28;20029;-84
2022/08/13 01:44:17;;;;;;;11.30;8.55;;;;;;;19.06;78.85;100513.63;5014010;28;20117;-83
2022/08/13 01:52:11;;;;;;;10.85;8.25;;;;;;;19.23;77.79;100501.81;5013853;28;20036;-83
2022/08/13 01:54:37;;;;;;;12.88;9.18;;;;;;;19.28;77.65;100504.63;5013227;28;20048;-84
2022/08/13 01:57:05;;;;;;;10.05;8.43;;;;;;;19.32;77.13;100504.31;4997166;28;20371;-84
2022/08/13 01:59:34;;;;;;;11.77;8.98;;;;;;;19.33;77.40;100497.19;4997519;28;20044;-84
2022/08/13 02:02:04;;;;;;;9.40;7.60;;;;;;;19.32;77.67;100495.63;4997778;28;20112;-85
2022/08/13 02:04:32;;;;;;;9.00;8.07;;;;;;;19.35;77.78;100504.03;5015130;28;20445;-84
2022/08/13 02:06:59;;;;;;;10.43;8.40;;;;;;;19.36;77.80;100502.66;4997718;28;20056;-85
2022/08/13 02:09:25;;;;;;;9.90;7.90;;;;;;;19.37;77.97;100507.13;4997593;28;20038;-86
2022/08/13 02:11:50;;;;;;;9.48;7.90;;;;;;;19.39;78.24;100513.19;5013951;28;20534;-83
2022/08/13 02:14:16;;;;;;;10.93;8.27;;;;;;;19.36;78.33;100507.69;5013532;28;20070;-82
2022/08/13 02:16:42;;;;;;;10.88;8.73;;;;;;;19.39;78.42;100512.38;5008313;28;20097;-84
2022/08/13 02:19:07;;;;;;;9.07;7.80;;;;;;;19.38;78.61;100508.69;5014553;28;20026;-83
2022/08/13 02:21:38;;;;;;;11.13;8.75;;;;;;;19.40;78.90;100514.75;5032797;28;20041;-83
2022/08/13 02:24:08;;;;;;;12.63;8.27;;;;;;;19.38;79.89;100507.91;5030781;28;20025;-83
2022/08/13 02:26:35;;;;;;;11.18;8.75;;;;;;;19.29;81.55;100512.00;5001691;28;20029;-83
2022/08/13 02:29:04;;;;;;;10.10;8.90;;;;;;;19.17;83.29;100498.22;5014253;28;20029;-83
2022/08/13 02:31:30;;;;;;;11.75;8.38;;;;;;;19.04;84.79;100491.00;4997355;28;20026;-83
2022/08/13 02:33:56;;;;;;;11.23;8.32;;;;;;;18.91;85.70;100478.56;5024650;28;20060;-83
2022/08/13 02:36:23;;;;;;;9.32;8.20;;;;;;;18.78;86.92;100476.34;5014438;28;20029;-83
2022/08/13 02:38:59;;;;;;;8.82;7.68;;;;;;;18.71;87.33;100474.09;5029822;28;20033;-84
2022/08/13 02:41:43;;;;;;;11.73;8.23;;;;;;;18.61;88.00;100462.09;5007188;28;20060;-82
2022/08/13 02:44:12;;;;;;;9.70;8.30;;;;;;;18.62;88.04;100466.53;5014215;28;20449;-83
2022/08/13 02:46:39;;;;;;;10.73;8.13;;;;;;;18.64;88.28;100461.00;5013685;28;20034;-84
2022/08/13 02:49:05;;;;;;;11.38;8.13;;;;;;;18.65;88.58;100456.78;4996565;28;20403;-83
2022/08/13 02:51:31;;;;;;;10.57;7.90;;;;;;;18.66;88.32;100451.78;5013053;28;20045;-84
2022/08/13 02:53:59;;;;;;;10.88;8.82;;;;;;;18.67;88.75;100451.22;5017733;28;20037;-82
2022/08/13 02:56:26;;;;;;;11.95;8.43;;;;;;;18.74;88.19;100446.91;5000675;28;20046;-83
2022/08/13 02:58:52;;;;;;;11.63;9.23;;;;;;;18.68;87.83;100437.53;5000271;28;20386;-85
2022/08/13 03:01:17;;;;;;;11.90;8.77;;;;;;;18.81;87.61;100454.22;5000343;28;20510;-84
2022/08/13 03:03:43;;;;;;;10.70;8.50;;;;;;;18.82;88.08;100456.53;5016774;28;20065;-84
2022/08/13 03:06:08;;;;;;;10.38;8.50;;;;;;;18.78;87.88;100452.38;5016777;28;20113;-84
2022/08/13 03:08:34;;;;;;;13.05;9.85;;;;;;;18.83;87.85;100460.22;5017817;28;20112;-83
2022/08/13 03:11:00;;;;;;;11.73;9.77;;;;;;;18.79;87.87;100451.84;5017322;28;20030;-83
2022/08/13 03:13:29;;;;;;;12.13;8.80;;;;;;;18.84;88.03;100456.00;4999476;28;20550;-84
2022/08/13 03:15:56;;;;;;;11.65;9.18;;;;;;;18.80;87.53;100446.84;5015927;28;20029;-83
2022/08/13 03:18:23;;;;;;;12.07;9.50;;;;;;;18.84;87.52;100456.00;4999456;28;20038;-83
2022/08/13 03:20:49;;;;;;;11.50;9.18;;;;;;;18.91;87.48;100450.38;5017306;28;20058;-82
2022/08/13 03:23:15;;;;;;;12.77;9.85;;;;;;;18.94;87.16;100455.06;4999523;28;20434;-83
2022/08/13 03:25:41;;;;;;;11.38;8.73;;;;;;;18.98;87.41;100452.63;5017058;28;20053;-83
2022/08/13 03:28:06;;;;;;;12.82;9.95;;;;;;;18.98;86.93;100449.72;5017091;28;20130;-83
2022/08/13 03:30:34;;;;;;;11.88;9.95;;;;;;;18.98;87.61;100452.63;5017093;28;20474;-84
2022/08/13 03:33:07;;;;;;;10.90;9.32;;;;;;;18.98;87.15;100451.84;5016852;28;20391;-84
2022/08/13 03:35:35;;;;;;;13.98;9.75;;;;;;;18.96;87.51;100449.53;5015553;28;20030;-83
2022/08/13 03:38:01;;;;;;;10.27;9.18;;;;;;;18.99;87.28;100450.53;5015516;28;20474;-83
2022/08/13 03:41:00;;;;;;;12.43;10.05;;;;;;;18.97;87.42;100451.06;5015433;28;20033;-83
2022/08/13 03:43:15;;;;;;;13.07;10.65;;;;;;;18.98;87.48;100449.72;5016467;28;20029;-83
2022/08/13 03:45:44;;;;;;;10.40;8.60;;;;;;;18.98;87.07;100446.06;4998814;28;20025;-84
2022/08/13 03:48:10;;;;;;;11.68;9.65;;;;;;;18.96;87.28;100452.41;4999054;28;20110;-84
2022/08/13 03:50:36;;;;;;;11.98;9.63;;;;;;;18.98;87.41;100454.75;5016201;28;20048;-84
2022/08/13 03:53:05;;;;;;;12.85;9.63;;;;;;;18.99;87.73;100457.09;4998820;28;20033;-83
2022/08/13 03:55:31;;;;;;;12.38;10.30;;;;;;;18.98;87.29;100449.72;5015313;28;20032;-83
2022/08/13 03:57:57;;;;;;;11.63;10.32;;;;;;;18.93;87.47;100447.69;5015211;28;20072;-83
2022/08/13 04:00:28;;;;;;;13.82;10.38;;;;;;;18.96;87.26;100445.84;4998738;28;20018;-83
2022/08/13 04:02:57;;;;;;;13.55;10.75;;;;;;;19.02;87.19;100456.00;5015680;28;20028;-82
2022/08/13 04:05:22;;;;;;;13.05;10.60;;;;;;;19.03;87.23;100442.28;5014028;28;20474;-83
2022/08/13 04:07:50;;;;;;;12.50;10.32;;;;;;;19.07;87.53;100440.66;5014654;28;20028;-83
2022/08/13 04:10:16;;;;;;;14.48;10.65;;;;;;;19.08;87.76;100442.22;5014960;28;20057;-82
2022/08/13 04:12:41;;;;;;;12.35;9.82;;;;;;;19.02;87.68;100429.13;4998608;28;20107;-82
2022/08/13 04:15:07;;;;;;;11.55;9.88;;;;;;;19.09;87.44;100438.00;5014818;28;20029;-83
2022/08/13 04:17:35;;;;;;;12.98;10.32;;;;;;;19.13;87.11;100437.66;4998449;28;20026;-83
2022/08/13 04:20:02;;;;;;;13.05;10.00;;;;;;;19.10;86.84;100430.88;4998629;28;20038;-81
2022/08/13 04:22:27;;;;;;;11.63;10.35;;;;;;;19.18;87.31;100445.53;5014933;28;20030;-82
2022/08/13 04:24:53;;;;;;;15.10;10.65;;;;;;;19.18;87.24;100433.94;4998853;28;20017;-82
2022/08/13 04:27:19;;;;;;;14.23;10.23;;;;;;;19.17;87.16;100434.47;4999474;28;20033;-82
2022/08/13 04:29:44;;;;;;;15.10;10.90;;;;;;;19.17;87.01;100425.78;4999452;28;20439;-82
2022/08/13 04:32:09;;;;;;;14.18;10.65;;;;;;;19.25;87.17;100435.41;5015389;28;20420;-84
2022/08/13 04:34:35;;;;;;;11.80;10.15;;;;;;;19.33;87.35;100445.03;5014456;28;20030;-82
2022/08/13 04:37:01;;;;;;;12.63;10.70;;;;;;;19.34;86.82;100444.47;5014549;28;20028;-83
2022/08/13 04:39:27;;;;;;;13.00;10.90;;;;;;;19.34;87.27;100438.69;4998325;28;20061;-82
2022/08/13 04:41:53;;;;;;;12.45;10.13;;;;;;;19.35;86.84;100442.38;4997926;28;20482;-82
2022/08/13 04:44:19;;;;;;;15.70;12.38;;;;;;;19.34;86.88;100435.00;5016831;28;20170;-83
2022/08/13 04:46:44;;;;;;;11.85;9.63;;;;;;;19.38;86.79;100433.34;5030246;28;20033;-82
2022/08/13 04:49:11;;;;;;;13.88;10.02;;;;;;;19.35;86.77;100433.69;5021672;28;20053;-81
2022/08/13 04:51:40;;;;;;;13.25;9.82;;;;;;;19.40;86.92;100445.19;4999604;28;20474;-82
2022/08/13 04:54:06;;;;;;;11.32;9.88;;;;;;;19.42;86.75;100442.50;5025959;28;20033;-82
2022/08/13 04:56:33;;;;;;;13.35;10.48;;;;;;;19.42;87.04;100438.81;5015258;28;20037;-83
2022/08/13 04:58:58;;;;;;;14.35;10.60;;;;;;;19.39;87.28;100439.94;5014277;28;20037;-82
2022/08/13 05:01:23;;;;;;;12.15;9.85;;;;;;;19.37;87.13;100445.47;4998061;28;20033;-83
2022/08/13 05:03:49;;;;;;;13.30;10.52;;;;;;;19.29;87.82;100438.78;5015402;28;20032;-83
2022/08/13 05:06:18;;;;;;;12.32;10.80;;;;;;;19.28;87.94;100445.91;5014032;28;20026;-82
2022/08/13 05:08:44;;;;;;;12.77;10.18;;;;;;;19.12;88.44;100430.28;5015439;28;20052;-84
2022/08/13 05:11:12;;;;;;;14.13;10.32;;;;;;;19.21;88.71;100434.97;5015333;28;20414;-84
2022/08/13 05:13:39;;;;;;;13.05;10.07;;;;;;;19.18;88.99;100441.84;5013930;28;20080;-83
2022/08/13 05:16:09;;;;;;;15.05;11.60;;;;;;;19.18;89.23;100444.72;5013976;28;20030;-83
2022/08/13 05:18:37;;;;;;;14.48;10.27;;;;;;;19.21;89.14;100443.66;5013867;28;20129;-83
2022/08/13 05:21:05;;;;;;;11.57;10.05;;;;;;;19.22;89.10;100436.50;5014065;28;20057;-83
2022/08/13 05:23:34;;;;;;;12.45;10.45;;;;;;;19.09;89.14;100426.41;5015077;28;20030;-83
2022/08/13 05:25:59;;;;;;;15.15;10.50;;;;;;;19.20;89.17;100445.75;5013962;28;20021;-84
2022/08/13 05:28:26;;;;;;;11.65;10.38;;;;;;;18.94;89.54;100397.13;5014647;28;20030;-83
2022/08/13 05:30:51;;;;;;;13.00;10.70;;;;;;;19.11;90.08;100435.34;5014574;28;20026;-83
2022/08/13 05:33:22;;;;;;;13.70;10.38;;;;;;;19.06;90.30;100435.41;5013719;28;20084;-84
2022/08/13 05:35:50;;;;;;;12.88;10.10;;;;;;;18.98;90.72;100438.16;5013561;28;20088;-83
2022/08/13 05:38:17;;;;;;;14.20;11.63;;;;;;;18.83;91.26;100425.47;5014571;28;20591;-83
2022/08/13 05:40:43;;;;;;;14.45;11.30;;;;;;;18.74;92.21;100414.28;5013145;28;20030;-83
2022/08/13 05:43:11;;;;;;;16.30;11.73;;;;;;;18.77;92.45;100419.00;4996696;28;20053;-84
2022/08/13 05:45:37;;;;;;;16.38;11.73;;;;;;;18.69;93.12;100410.13;5012998;28;20018;-83
2022/08/13 05:48:03;;;;;;;15.55;11.68;;;;;;;18.71;93.97;100416.19;5014532;28;20040;-84
2022/08/13 05:50:29;;;;;;;16.88;12.02;;;;;;;18.66;93.94;100414.94;5013391;28;20054;-84
2022/08/13 05:53:08;;;;;;;17.30;11.45;;;;;;;18.67;94.71;100412.81;5013762;28;20025;-82
2022/08/13 05:55:33;;;;;;;17.98;11.88;;;;;;;18.65;95.22;100415.47;5013760;28;20053;-84
2022/08/13 05:57:59;;;;;;;15.63;11.77;;;;;;;18.64;95.60;100414.69;5014708;28;20033;-83
2022/08/13 06:03:27;;;;;;;14.45;11.65;;;;;;;18.66;95.87;100409.13;5014202;28;20116;-84
2022/08/13 06:06:00;;;;;;;16.70;12.40;;;;;;;18.70;96.19;100405.91;5014827;28;20030;-84
2022/08/13 06:08:29;;;;;;;18.45;12.45;;;;;;;18.68;96.44;100397.00;5013186;28;20022;-83
2022/08/13 06:10:59;;;;;;;16.02;13.00;;;;;;;18.72;96.30;100400.38;5013844;28;20033;-85
2022/08/13 06:13:26;;;;;;;18.30;12.43;;;;;;;18.73;96.26;100395.34;5013533;28;20040;-83
2022/08/13 06:15:58;;;;;;;17.75;12.75;;;;;;;18.80;96.51;100407.09;5013101;28;20026;-83
2022/08/13 06:18:49;;;;;;;15.98;12.07;;;;;;;18.82;96.48;100398.63;4997325;28;20120;-83
2022/08/13 06:21:17;;;;;;;18.63;13.68;;;;;;;18.79;96.51;100399.72;5013481;28;20026;-84
2022/08/13 06:23:45;;;;;;;17.27;13.25;;;;;;;18.86;96.71;100409.91;5013908;28;20026;-82
2022/08/13 06:26:12;;;;;;;20.20;12.85;;;;;;;18.88;96.65;100386.97;5013867;28;20026;-82
2022/08/13 06:28:39;;;;;;;17.00;11.88;;;;;;;19.00;96.43;100397.06;5016614;28;20025;-83
2022/08/13 06:31:06;;;;;;;16.33;12.55;;;;;;;19.07;96.53;100399.31;5001105;28;20025;-83
2022/08/13 06:33:35;;;;;;;17.55;12.93;;;;;;;19.09;96.00;100396.66;5016717;28;20030;-82
2022/08/13 06:36:02;;;;;;;16.30;12.75;;;;;;;19.10;96.19;100401.91;5000964;28;20032;-82
2022/08/13 06:38:33;;;;;;;18.38;13.13;;;;;;;19.12;95.82;100407.91;5017148;28;20061;-84
2022/08/13 06:41:00;;;;;;;20.48;13.63;;;;;;;19.15;95.95;100408.97;5000409;28;20029;-84
2022/08/13 06:43:35;;;;;;;17.50;13.00;;;;;;;19.16;95.80;100403.97;5000515;28;20037;-84
2022/08/13 06:46:03;;;;;;;19.00;13.55;;;;;;;19.19;95.65;100400.72;5000465;28;20029;-83
2022/08/13 06:48:29;;;;;;;18.73;13.70;;;;;;;19.21;95.94;100398.06;5016916;28;20026;-86
2022/08/13 06:50:55;;;;;;;20.20;13.48;;;;;;;19.25;95.83;100400.66;5000142;28;20046;-82
2022/08/13 06:53:21;;;;;;;17.58;12.95;;;;;;;19.40;95.72;100406.72;5016662;28;20116;-85
2022/08/13 06:55:49;;;;;;;18.08;13.82;;;;;;;19.47;95.42;100409.75;5016723;28;20121;-84
2022/08/13 06:58:15;;;;;;;19.83;13.77;;;;;;;19.58;95.32;100408.75;4999995;28;20040;-84
2022/08/13 07:00:42;;;;;;;18.25;14.35;;;;;;;19.69;94.75;100413.59;5016498;28;20105;-84
2022/08/13 07:03:09;;;;;;;18.00;14.13;;;;;;;19.76;94.39;100416.59;5017979;28;20041;-84
2022/08/13 07:05:41;;;;;;;19.52;13.70;;;;;;;19.90;93.53;100424.00;5000029;28;20108;-84
2022/08/13 07:08:08;;;;;;;18.77;13.30;;;;;;;19.98;93.17;100417.56;5016084;28;20034;-83
2022/08/13 07:10:35;;;;;;;17.73;14.05;;;;;;;20.07;92.56;100423.72;5017520;28;20048;-84
2022/08/13 07:13:02;;;;;;;18.73;12.73;;;;;;;20.03;92.13;100411.66;5017064;28;20526;-85
2022/08/13 07:15:28;;;;;;;17.55;13.88;;;;;;;20.06;91.75;100427.94;5000029;28;20030;-84
2022/08/13 07:17:55;;;;;;;17.60;13.55;;;;;;;19.96;90.90;100421.78;5015981;28;20036;-86
2022/08/13 07:20:21;;;;;;;18.25;13.35;;;;;;;20.16;91.35;100434.09;5016117;28;20481;-84
2022/08/13 07:22:47;;;;;;;18.25;13.70;;;;;;;20.24;90.99;100437.91;4999621;28;20034;-84
2022/08/13 07:25:13;;;;;;;18.05;13.10;;;;;;;20.25;90.24;100431.50;5017118;28;20033;-85
2022/08/13 07:27:39;;;;;;;19.38;13.00;;;;;;;20.29;90.09;100429.09;4999247;28;20026;-84
2022/08/13 07:30:06;;;;;;;17.50;13.63;;;;;;;20.37;89.93;100438.66;5016134;28;20133;-85
2022/08/13 07:32:36;;;;;;;18.77;13.82;;;;;;;20.45;89.66;100444.56;4999376;28;20390;-83
2022/08/13 07:35:02;;;;;;;17.27;13.35;;;;;;;20.45;89.26;100435.09;5015966;28;20034;-85
2022/08/13 07:37:28;;;;;;;17.55;13.88;;;;;;;20.50;89.03;100446.56;5017403;28;20037;-84
2022/08/13 07:39:54;;;;;;;17.60;14.65;;;;;;;20.64;88.87;100439.44;5015533;28;20355;-84
2022/08/13 07:42:21;;;;;;;18.95;13.90;;;;;;;20.74;88.43;100437.63;5015976;28;20038;-83
2022/08/13 07:44:52;;;;;;;17.52;13.70;;;;;;;20.80;88.19;100428.81;5016085;28;20030;-84
2022/08/13 07:47:19;;;;;;;18.77;14.27;;;;;;;21.00;87.52;100448.44;5032147;28;20076;-84
2022/08/13 07:49:46;;;;;;;14.95;12.63;;;;;;;21.10;87.00;100451.63;5015178;28;20041;-85
2022/08/13 07:52:13;;;;;;;17.38;13.23;;;;;;;21.10;86.35;100461.13;5017603;28;20030;-84
2022/08/13 07:54:41;;;;;;;19.13;13.85;;;;;;;21.09;85.63;100464.63;5031846;28;20104;-83
2022/08/13 07:57:08;;;;;;;18.88;14.38;;;;;;;21.08;85.93;100458.03;5027054;28;20038;-84
2022/08/13 07:59:34;;;;;;;17.45;14.35;;;;;;;21.04;85.28;100469.19;4998607;28;20030;-85
2022/08/13 08:01:59;;;;;;;16.83;12.80;;;;;;;21.01;85.54;100463.72;4998374;28;20096;-85
2022/08/13 08:04:25;;;;;;;21.60;14.60;;;;;;;20.97;85.71;100466.22;5015986;28;20041;-85
2022/08/13 08:06:51;;;;;;;20.45;14.05;;;;;;;20.93;85.79;100459.97;5016217;28;20026;-85
2022/08/13 08:09:19;;;;;;;19.35;13.38;;;;;;;20.88;85.88;100460.88;5015504;28;20029;-85
2022/08/13 08:14:30;;;;;;;18.52;14.15;;;;;;;20.77;86.29;100467.69;5014855;28;20122;-85
2022/08/13 08:16:59;;;;;;;19.90;15.13;;;;;;;20.73;86.47;100473.06;5015520;28;20036;-86
2022/08/13 08:19:27;;;;;;;18.98;14.50;;;;;;;20.67;87.13;100464.44;4998219;28;20030;-86
2022/08/13 08:21:56;;;;;;;21.00;14.15;;;;;;;20.63;86.87;100478.53;5014788;28;20064;-84
2022/08/13 08:24:22;;;;;;;20.60;14.43;;;;;;;20.55;87.94;100468.91;5014473;28;20452;-84
2022/08/13 08:26:48;;;;;;;18.33;14.38;;;;;;;20.34;88.60;100454.31;4997891;28;20156;-85
2022/08/13 08:29:14;;;;;;;20.35;15.38;;;;;;;20.40;88.87;100468.69;4997908;28;20044;-85
2022/08/13 08:31:40;;;;;;;25.95;16.63;;;;;;;20.35;89.49;100464.56;5014276;28;20030;-84
2022/08/13 08:34:07;;;;;;;21.65;15.25;;;;;;;20.35;89.94;100461.66;5013828;28;20030;-84
2022/08/13 08:36:36;;;;;;;18.88;14.82;;;;;;;20.38;90.14;100466.38;5015526;28;20083;-84
2022/08/13 08:44:35;;;;;;;20.20;15.90;;;;;;;20.37;91.21;100455.31;5000653;28;20533;-84
2022/08/13 08:47:01;;;;;;;20.83;16.00;;;;;;;20.40;91.62;100459.97;5014363;28;20026;-84
2022/08/13 08:49:28;;;;;;;22.33;15.18;;;;;;;20.44;91.59;100450.97;5014588;28;20144;-86
2022/08/13 08:51:54;;;;;;;20.40;14.65;;;;;;;20.36;91.34;100459.53;4997155;28;20018;-84
2022/08/13 08:54:21;;;;;;;22.52;15.20;;;;;;;20.27;91.47;100466.59;5014903;28;20044;-84
2022/08/13 08:56:47;;;;;;;21.38;14.95;;;;;;;20.25;91.83;100454.72;4997375;28;20068;-84
2022/08/13 08:59:13;;;;;;;22.13;16.08;;;;;;;20.26;92.05;100458.41;5013523;28;20018;-83
2022/08/13 09:01:40;;;;;;;22.25;15.45;;;;;;;20.25;92.50;100451.06;5014103;28;20029;-84
2022/08/13 09:04:08;;;;;;;20.85;15.68;;;;;;;20.22;93.18;100446.38;5014005;28;20045;-85
2022/08/13 09:06:33;;;;;;;23.58;17.17;;;;;;;20.13;94.02;100436.00;5013641;28;20024;-85
2022/08/13 09:09:00;;;;;;;24.67;17.60;;;;;;;20.02;94.58;100430.41;4997235;28;20105;-85
2022/08/13 09:11:29;;;;;;;26.10;18.67;;;;;;;20.00;95.37;100427.28;5001952;28;20084;-85
2022/08/13 09:13:55;;;;;;;25.38;17.20;;;;;;;20.05;96.13;100428.50;5018444;28;20030;-85
2022/08/13 09:16:20;;;;;;;23.70;16.73;;;;;;;20.11;96.59;100423.38;5020326;28;20029;-85
2022/08/13 09:18:47;;;;;;;22.65;16.13;;;;;;;20.19;96.65;100415.56;5025095;28;20025;-85
2022/08/13 09:21:12;;;;;;;23.48;17.42;;;;;;;20.20;96.43;100403.38;5026712;28;20358;-85
2022/08/13 09:23:45;;;;;;;23.60;17.42;;;;;;;20.37;96.88;100420.47;5007862;28;20120;-84
2022/08/13 09:26:13;;;;;;;24.67;18.67;;;;;;;20.49;96.60;100409.41;5005382;28;20017;-84
2022/08/13 09:28:39;;;;;;;24.38;17.08;;;;;;;20.65;96.44;100417.75;5017446;28;20084;-86
2022/08/13 09:31:04;;;;;;;25.92;17.52;;;;;;;20.91;96.08;100422.75;5000633;28;20072;-85
2022/08/13 09:33:30;;;;;;;23.00;17.95;;;;;;;21.24;95.78;100419.03;5001391;28;20025;-85
2022/08/13 09:35:55;;;;;;;20.33;15.68;;;;;;;21.71;94.42;100424.00;5022348;28;20032;-86
2022/08/13 09:38:21;;;;;;;15.98;13.57;;;;;;;22.01;90.49;100444.63;5010700;28;20029;-87
2022/08/13 09:40:58;;;;;;;16.48;13.45;;;;;;;22.27;87.96;100449.50;5018875;28;20090;-85
2022/08/13 09:43:29;;;;;;;16.25;13.93;;;;;;;22.56;85.84;100456.06;5017622;28;20474;-86
2022/08/13 09:45:54;;;;;;;16.27;12.95;;;;;;;22.59;82.28;100466.56;4999233;28;20030;-86
2022/08/13 09:48:20;;;;;;;16.77;13.82;;;;;;;22.62;82.31;100455.91;5015958;28;20122;-85
2022/08/13 09:50:46;;;;;;;17.90;14.20;;;;;;;22.80;81.90;100489.81;5015259;28;20128;-85
2022/08/13 09:53:12;;;;;;;15.13;13.05;;;;;;;22.74;81.58;100489.97;5015236;28;20407;-86
2022/08/13 09:55:38;;;;;;;15.95;12.73;;;;;;;22.53;81.56;100484.19;5014384;28;20025;-85
2022/08/13 09:58:04;;;;;;;16.73;13.57;;;;;;;22.32;81.78;100488.53;5013982;28;20387;-85
2022/08/13 10:00:31;;;;;;;16.30;14.05;;;;;;;22.16;82.22;100487.63;5014147;28;20490;-86
2022/08/13 10:02:59;;;;;;;19.55;12.93;;;;;;;22.07;83.37;100485.22;5011680;28;20117;-86
2022/08/13 10:05:29;;;;;;;18.08;14.27;;;;;;;22.10;83.60;100484.06;4996175;28;20076;-85
2022/08/13 10:07:55;;;;;;;17.13;14.00;;;;;;;22.32;83.47;100471.81;5013522;28;20456;-84
2022/08/13 10:10:20;;;;;;;16.55;14.10;;;;;;;22.76;83.18;100469.78;5013869;28;20022;-86
2022/08/13 10:12:46;;;;;;;18.33;13.30;;;;;;;23.38;81.50;100465.75;5013947;28;20109;-85
2022/08/13 10:15:12;;;;;;;15.38;12.65;;;;;;;24.05;78.75;100475.97;5014114;28;20030;-86
2022/08/13 10:18:02;;;;;;;14.27;11.68;;;;;;;24.79;76.15;100495.38;5017938;28;20084;-84
2022/08/13 10:20:36;;;;;;;14.10;12.10;;;;;;;25.43;72.54;100497.66;5024389;28;20022;-84
2022/08/13 10:23:03;;;;;;;13.40;11.20;;;;;;;25.93;69.63;100495.59;5007839;28;20018;-85
2022/08/13 10:25:29;;;;;;;13.10;10.90;;;;;;;26.31;68.68;100498.25;5019912;28;20068;-85
2022/08/13 10:27:55;;;;;;;16.90;12.40;;;;;;;26.34;66.26;100486.09;4997386;28;20025;-86
2022/08/13 10:30:24;;;;;;;13.32;11.00;;;;;;;26.44;65.22;100497.91;5013511;28;20090;-86
2022/08/13 10:32:50;;;;;;;13.35;12.00;;;;;;;26.59;65.12;100491.13;5014178;28;20178;-87
2022/08/13 10:35:17;;;;;;;13.45;11.98;;;;;;;26.83;64.84;100492.44;5012971;28;20044;-87
2022/08/13 10:37:47;;;;;;;16.85;12.25;;;;;;;26.99;63.64;100491.66;5019442;28;20355;-85
2022/08/13 10:40:16;;;;;;;13.63;11.82;;;;;;;27.01;62.33;100491.06;5017387;28;20026;-85
2022/08/13 10:42:44;;;;;;;11.00;9.88;;;;;;;27.14;62.89;100488.56;5018618;28;20478;-85
2022/08/13 10:45:13;;;;;;;12.48;10.02;;;;;;;27.16;60.99;100479.13;5002910;28;20018;-84
2022/08/13 10:47:52;;;;;;;12.15;10.85;;;;;;;27.04;61.13;100481.81;5022647;28;20026;-85
2022/08/13 10:50:20;;;;;;;12.93;10.50;;;;;;;26.70;60.81;100482.59;5006704;28;20053;-86
2022/08/13 10:52:46;;;;;;;12.63;10.13;;;;;;;26.24;62.31;100476.41;5022296;28;20044;-87
2022/08/13 10:55:14;;;;;;;11.40;10.20;;;;;;;25.92;63.31;100482.34;5019301;28;20459;-86
2022/08/13 10:57:42;;;;;;;11.73;10.30;;;;;;;25.88;64.74;100471.03;5006900;28;20072;-88
2022/08/13 11:00:11;;;;;;;11.82;10.63;;;;;;;26.21;64.93;100462.19;4997671;28;20079;-86
2022/08/13 11:02:37;;;;;;;12.55;10.45;;;;;;;26.66;64.08;100449.22;5015632;28;20037;-86
2022/08/13 11:05:05;;;;;;;12.48;10.93;;;;;;;26.96;62.91;100454.72;5001250;28;20085;-86
2022/08/13 11:07:32;;;;;;;14.43;10.23;;;;;;;27.11;61.45;100448.66;5022609;28;20030;-86
2022/08/13 11:09:58;;;;;;;13.07;8.77;;;;;;;27.20;60.25;100453.06;5020740;28;20037;-86
2022/08/13 11:12:24;;;;;;;11.70;8.93;;;;;;;27.15;59.03;100449.03;5013999;28;20030;-87
2022/08/13 11:14:50;;;;;;;10.82;9.50;;;;;;;26.98;59.02;100454.13;5022376;28;20049;-88
2022/08/13 11:17:17;;;;;;;11.38;9.93;;;;;;;26.62;59.60;100449.63;5030574;28;20027;-87
2022/08/13 11:19:45;;;;;;;14.18;10.25;;;;;;;26.52;61.28;100450.91;5013477;28;20030;-86
2022/08/13 11:22:14;;;;;;;10.50;9.40;;;;;;;26.51;62.06;100437.66;5020454;28;20057;-86
2022/08/13 11:24:39;;;;;;;11.68;10.35;;;;;;;26.47;62.46;100441.00;5016884;28;20049;-85
2022/08/13 11:27:05;;;;;;;11.02;9.88;;;;;;;26.52;62.05;100430.41;5021476;28;20076;-87
2022/08/13 11:29:30;;;;;;;13.13;10.02;;;;;;;26.68;61.55;100432.56;5018999;28;20029;-86
2022/08/13 11:32:00;;;;;;;11.52;10.05;;;;;;;26.91;61.06;100438.16;5017998;28;20041;-86